Time;durP1;ratioP1;P1;durP2;ratioP2;P2;SDS_P1;SDS_P2;PMS_P1;PMS_P2;Temp;Humidity;BMP_temperature;BMP_pressure;BME280_temperature;BME280_humidity;BME280_pressure;Samples;Min_cycle;Max_cycle;Signal;HPM_P1;HPM_P2
2023/03/20 00:01:19;;;;;;;6.93;2.77;;;11.90;99.90;;;;;;4987195;28;20215;-68
2023/03/20 00:03:45;;;;;;;3.97;2.87;;;11.90;99.90;;;;;;4988802;28;20202;-67
2023/03/20 00:06:15;;;;;;;3.57;3.17;;;11.90;99.90;;;;;;4989191;28;20231;-66
2023/03/20 00:08:40;;;;;;;2.70;2.50;;;11.70;99.90;;;;;;4989278;28;20260;-66
2023/03/20 00:11:29;;;;;;;5.97;3.33;;;11.60;99.90;;;;;;4988699;28;20207;-66
2023/03/20 00:13:56;;;;;;;3.50;3.20;;;11.40;99.90;;;;;;4991687;28;20666;-67
2023/03/20 00:16:24;;;;;;;5.80;3.30;;;11.30;99.90;;;;;;4989586;28;20573;-67
2023/03/20 00:18:49;;;;;;;4.60;3.97;;;11.20;99.90;;;;;;4975014;28;20289;-69
2023/03/20 00:21:18;;;;;;;3.70;3.40;;;11.10;99.90;;;;;;4992056;28;21038;-67
2023/03/20 00:23:44;;;;;;;6.50;3.63;;;11.10;99.90;;;;;;4991330;28;20203;-66
2023/03/20 00:26:17;;;;;;;4.17;3.30;;;11.10;99.90;;;;;;4986947;28;20206;-68
2023/03/20 00:28:44;;;;;;;7.60;4.13;;;11.00;99.90;;;;;;4987925;28;20201;-69
2023/03/20 00:31:26;;;;;;;3.90;3.60;;;10.90;99.90;;;;;;4992336;28;20212;-68
2023/03/20 00:33:53;;;;;;;7.43;3.80;;;10.90;99.90;;;;;;4987465;28;20251;-68
2023/03/20 00:36:19;;;;;;;8.93;7.60;;;10.80;99.90;;;;;;4993574;28;20220;-68
2023/03/20 00:38:45;;;;;;;5.07;4.47;;;10.80;99.90;;;;;;4987031;28;20696;-67
2023/03/20 00:41:26;;;;;;;3.63;3.33;;;10.70;99.90;;;;;;4985466;28;20273;-66
2023/03/20 00:43:56;;;;;;;4.20;3.80;;;10.70;99.90;;;;;;4987212;28;20752;-68
2023/03/20 00:46:23;;;;;;;5.90;4.20;;;10.60;99.90;;;;;;4988119;28;20662;-67
2023/03/20 00:48:48;;;;;;;4.77;3.80;;;10.60;99.90;;;;;;4990002;28;20244;-68
2023/03/20 00:51:14;;;;;;;6.87;4.37;;;10.50;99.90;;;;;;4986874;28;20240;-66
2023/03/20 00:53:40;;;;;;;8.00;4.97;;;10.50;99.90;;;;;;4987163;28;20204;-66
2023/03/20 00:56:10;;;;;;;10.70;5.67;;;10.40;99.90;;;;;;4987445;28;20218;-68
2023/03/20 00:58:36;;;;;;;4.73;3.33;;;10.30;99.90;;;;;;4985385;28;20210;-67
2023/03/20 01:01:01;;;;;;;6.30;4.07;;;10.30;99.90;;;;;;4986951;28;20419;-67
2023/03/20 01:03:28;;;;;;;6.23;4.40;;;10.20;99.90;;;;;;4987731;28;20723;-68
2023/03/20 01:05:56;;;;;;;6.20;4.67;;;10.20;99.90;;;;;;4987998;28;20205;-67
2023/03/20 01:08:24;;;;;;;8.80;4.67;;;10.20;99.90;;;;;;4987288;28;20684;-67
2023/03/20 01:10:53;;;;;;;7.17;4.70;;;10.20;99.90;;;;;;4986812;28;20291;-68
2023/03/20 01:13:25;;;;;;;6.50;5.17;;;10.10;99.90;;;;;;4986786;28;20204;-67
2023/03/20 01:15:53;;;;;;;5.93;4.27;;;10.10;99.90;;;;;;4986864;28;20297;-67
2023/03/20 01:18:21;;;;;;;8.17;4.90;;;10.20;99.90;;;;;;4985123;28;20590;-69
2023/03/20 01:20:48;;;;;;;6.43;4.70;;;10.20;99.90;;;;;;4990532;28;20209;-68
2023/03/20 01:23:14;;;;;;;5.10;4.13;;;10.20;99.90;;;;;;4991011;28;20261;-67
2023/03/20 01:25:39;;;;;;;7.33;4.77;;;10.20;99.90;;;;;;4991061;28;20960;-67
2023/03/20 01:28:18;;;;;;;7.20;4.90;;;10.20;99.90;;;;;;4988208;28;20198;-67
2023/03/20 01:30:45;;;;;;;6.47;4.87;;;10.20;99.90;;;;;;4986775;28;20225;-67
2023/03/20 01:33:20;;;;;;;9.60;5.63;;;10.20;99.90;;;;;;4986305;28;20217;-68
2023/03/20 01:35:47;;;;;;;6.93;5.30;;;10.20;99.90;;;;;;4980810;28;20943;-67
2023/03/20 01:38:33;;;;;;;5.87;4.77;;;10.20;99.90;;;;;;4987129;28;20231;-68
2023/03/20 01:41:11;;;;;;;5.90;4.00;;;10.30;99.90;;;;;;4985593;28;20698;-68
2023/03/20 01:43:37;;;;;;;8.70;4.77;;;10.30;99.90;;;;;;4985721;28;20250;-67
2023/03/20 01:46:22;;;;;;;4.87;3.70;;;10.40;99.90;;;;;;4985035;28;20201;-67
2023/03/20 01:48:56;;;;;;;5.80;3.90;;;10.40;99.90;;;;;;4985610;28;20570;-67
2023/03/20 01:51:31;;;;;;;8.53;5.07;;;10.40;99.90;;;;;;4986058;28;20217;-67
2023/03/20 01:54:10;;;;;;;6.20;5.20;;;10.40;99.90;;;;;;4967708;28;20571;-67
2023/03/20 01:56:40;;;;;;;5.80;4.30;;;10.40;99.90;;;;;;4986509;28;20208;-67
2023/03/20 01:59:19;;;;;;;6.93;4.33;;;10.40;99.90;;;;;;4985075;28;20684;-68
2023/03/20 02:01:44;;;;;;;6.73;3.77;;;10.30;99.90;;;;;;4986021;28;20272;-68
2023/03/20 02:04:12;;;;;;;5.27;3.90;;;10.30;99.90;;;;;;4985833;28;20688;-67
2023/03/20 02:06:39;;;;;;;8.03;4.63;;;10.20;99.90;;;;;;4986174;28;20292;-68
2023/03/20 02:09:04;;;;;;;7.57;4.17;;;10.20;99.90;;;;;;4986260;28;20629;-68
2023/03/20 02:11:30;;;;;;;6.67;4.57;;;10.20;99.90;;;;;;4978971;28;20295;-67
2023/03/20 02:13:59;;;;;;;6.20;4.20;;;10.20;99.90;;;;;;4976358;28;20206;-67
2023/03/20 02:16:25;;;;;;;4.77;4.33;;;10.20;99.90;;;;;;4992410;28;20225;-67
2023/03/20 02:18:52;;;;;;;5.37;3.97;;;10.20;99.90;;;;;;4995915;28;20284;-67
2023/03/20 02:21:43;;;;;;;5.97;4.63;;;10.20;99.90;;;;;;4994869;28;20301;-67
2023/03/20 02:24:41;;;;;;;6.20;4.90;;;10.30;99.90;;;;;;4994118;28;20196;-67
2023/03/20 02:27:37;;;;;;;6.73;4.83;;;10.30;99.90;;;;;;4975166;28;20201;-67
2023/03/20 02:30:41;;;;;;;7.90;5.03;;;10.40;99.90;;;;;;4993505;28;20241;-68
2023/03/20 02:33:28;;;;;;;6.30;5.17;;;10.40;99.90;;;;;;4976271;28;20587;-68
2023/03/20 02:36:14;;;;;;;8.10;4.97;;;10.40;99.90;;;;;;4995111;28;20298;-68
2023/03/20 02:38:58;;;;;;;5.47;4.70;;;10.40;99.90;;;;;;4995641;28;20867;-68
2023/03/20 02:41:50;;;;;;;4.90;4.50;;;10.30;99.90;;;;;;4978556;28;20301;-68
2023/03/20 02:44:42;;;;;;;4.60;3.90;;;10.30;99.90;;;;;;4997968;28;20231;-67
2023/03/20 02:47:14;;;;;;;6.33;4.77;;;10.20;99.90;;;;;;4998727;28;20207;-67
2023/03/20 02:49:59;;;;;;;5.07;4.67;;;10.20;99.90;;;;;;4998943;28;20220;-67
2023/03/20 02:52:55;;;;;;;5.13;4.63;;;10.20;99.90;;;;;;4997536;28;20210;-68
2023/03/20 02:55:44;;;;;;;5.70;5.10;;;10.30;99.90;;;;;;4952941;28;20226;-68
2023/03/20 02:58:25;;;;;;;6.90;5.37;;;10.20;99.90;;;;;;4997274;28;20206;-68
2023/03/20 03:01:10;;;;;;;4.87;4.37;;;10.20;99.90;;;;;;4978291;28;20247;-68
2023/03/20 03:03:45;;;;;;;10.40;5.43;;;10.20;99.90;;;;;;4980780;28;20280;-67
2023/03/20 03:06:22;;;;;;;6.47;5.73;;;10.20;99.90;;;;;;4980667;28;20606;-67
2023/03/20 03:08:54;;;;;;;7.17;6.00;;;10.20;99.90;;;;;;4980105;28;20198;-67
2023/03/20 03:11:20;;;;;;;5.83;5.23;;;10.20;99.90;;;;;;4980130;28;20730;-67
2023/03/20 03:13:52;;;;;;;5.87;5.30;;;10.20;99.90;;;;;;4979788;28;20242;-67
2023/03/20 03:16:31;;;;;;;7.10;5.30;;;10.10;99.90;;;;;;4980007;28;20317;-67
2023/03/20 03:19:07;;;;;;;6.10;5.50;;;10.10;99.90;;;;;;4989882;28;20193;-67
2023/03/20 03:21:35;;;;;;;5.70;5.10;;;10.00;99.90;;;;;;4991098;28;20445;-68
2023/03/20 03:24:02;;;;;;;6.30;5.27;;;10.00;99.90;;;;;;4978856;28;20206;-68
2023/03/20 03:26:32;;;;;;;5.80;5.30;;;10.00;99.90;;;;;;4979345;28;20203;-68
2023/03/20 03:29:02;;;;;;;6.90;6.10;;;10.00;99.90;;;;;;4982634;28;20286;-68
2023/03/20 03:31:29;;;;;;;6.87;6.17;;;10.00;99.90;;;;;;4994362;28;20218;-69
2023/03/20 03:33:57;;;;;;;7.57;6.30;;;10.00;99.90;;;;;;4997786;28;20266;-68
2023/03/20 03:36:46;;;;;;;8.97;6.37;;;10.00;99.90;;;;;;4998848;28;20208;-68
2023/03/20 03:39:48;;;;;;;8.83;6.30;;;10.00;99.90;;;;;;4988195;28;20395;-68
2023/03/20 03:42:36;;;;;;;6.60;5.53;;;10.00;99.90;;;;;;4987889;28;23533;-68
2023/03/20 03:45:07;;;;;;;8.73;5.90;;;9.90;99.90;;;;;;4988117;28;20267;-68
2023/03/20 03:47:39;;;;;;;6.93;6.20;;;9.90;99.90;;;;;;4989458;28;20285;-68
2023/03/20 03:50:17;;;;;;;6.43;5.53;;;9.90;99.90;;;;;;4986240;28;20222;-67
2023/03/20 03:52:44;;;;;;;6.10;5.60;;;9.80;99.90;;;;;;4987827;28;20207;-67
2023/03/20 03:55:19;;;;;;;7.33;5.57;;;9.80;99.90;;;;;;4988268;28;20236;-67
2023/03/20 03:57:51;;;;;;;7.07;5.67;;;9.70;99.90;;;;;;4987966;28;20247;-67
2023/03/20 04:00:19;;;;;;;7.47;6.70;;;9.80;99.90;;;;;;4987818;28;20669;-68
2023/03/20 04:02:49;;;;;;;8.83;6.23;;;9.80;99.90;;;;;;4986376;28;20233;-68
2023/03/20 04:05:16;;;;;;;8.23;6.70;;;9.80;99.90;;;;;;4988941;28;20210;-68
2023/03/20 04:07:46;;;;;;;6.20;5.60;;;9.70;99.90;;;;;;4988453;28;20896;-68
2023/03/20 04:10:12;;;;;;;7.20;6.50;;;9.70;99.90;;;;;;4988619;28;20204;-68
2023/03/20 04:12:40;;;;;;;7.73;6.03;;;9.80;99.90;;;;;;4987341;28;20210;-68
2023/03/20 04:15:07;;;;;;;8.50;6.97;;;9.70;99.90;;;;;;4988123;28;20197;-68
2023/03/20 04:17:33;;;;;;;9.10;6.57;;;9.70;99.90;;;;;;4988047;28;20570;-67
2023/03/20 04:19:59;;;;;;;7.77;6.30;;;9.70;99.90;;;;;;4987773;28;20227;-67
2023/03/20 04:22:25;;;;;;;9.10;7.30;;;9.60;99.90;;;;;;4988051;28;20217;-67
2023/03/20 04:24:51;;;;;;;7.03;6.30;;;9.60;99.90;;;;;;4986122;28;20225;-67
2023/03/20 04:27:17;;;;;;;8.80;7.90;;;9.60;99.90;;;;;;4988418;28;20194;-67
2023/03/20 04:29:43;;;;;;;8.13;6.40;;;9.60;99.90;;;;;;4989141;28;20206;-67
2023/03/20 04:32:09;;;;;;;9.00;8.10;;;9.60;99.90;;;;;;4985364;28;20210;-68
2023/03/20 04:34:35;;;;;;;8.13;7.33;;;9.60;99.90;;;;;;4978686;28;20265;-68
2023/03/20 04:37:00;;;;;;;9.13;8.13;;;9.60;99.90;;;;;;4976592;28;20204;-68
2023/03/20 04:39:26;;;;;;;8.30;7.03;;;9.50;99.90;;;;;;4978245;28;20204;-67
2023/03/20 04:41:52;;;;;;;8.33;6.63;;;9.60;99.90;;;;;;4978410;28;20332;-67
2023/03/20 04:44:18;;;;;;;9.93;7.83;;;9.60;99.90;;;;;;4978278;28;20691;-68
2023/03/20 04:46:43;;;;;;;9.37;8.17;;;9.70;99.90;;;;;;4976682;28;20200;-69
2023/03/20 04:49:09;;;;;;;9.17;7.73;;;9.70;99.90;;;;;;4995947;28;20202;-69
2023/03/20 04:51:34;;;;;;;8.23;7.23;;;9.70;99.90;;;;;;4997237;28;20210;-69
2023/03/20 04:54:00;;;;;;;8.00;6.83;;;9.70;99.90;;;;;;4997138;28;20210;-68
2023/03/20 04:56:25;;;;;;;15.13;7.47;;;9.70;99.90;;;;;;4996815;28;20255;-68
2023/03/20 04:58:51;;;;;;;9.77;8.83;;;9.60;99.90;;;;;;4997063;28;20352;-68
2023/03/20 05:01:16;;;;;;;9.43;8.00;;;9.60;99.90;;;;;;4994535;28;20250;-70
2023/03/20 05:03:42;;;;;;;9.10;8.20;;;9.50;99.90;;;;;;4995834;28;20879;-68
2023/03/20 05:06:08;;;;;;;9.17;7.67;;;9.60;99.90;;;;;;4996700;28;20228;-68
2023/03/20 05:08:33;;;;;;;8.87;8.03;;;9.60;99.90;;;;;;4994329;28;20219;-69
2023/03/20 05:10:59;;;;;;;10.17;8.80;;;9.60;99.90;;;;;;4988740;28;20207;-68
2023/03/20 05:13:24;;;;;;;10.63;9.53;;;9.60;99.90;;;;;;4986858;28;20203;-68
2023/03/20 05:15:50;;;;;;;10.23;8.87;;;9.60;99.90;;;;;;4985308;28;20195;-68
2023/03/20 05:18:16;;;;;;;10.73;9.10;;;9.60;99.90;;;;;;4987316;28;20211;-68
2023/03/20 05:20:41;;;;;;;9.93;8.83;;;9.60;99.90;;;;;;4987277;28;20310;-68
2023/03/20 05:23:07;;;;;;;10.83;9.10;;;9.60;99.90;;;;;;4987931;28;20234;-68
2023/03/20 05:25:32;;;;;;;11.50;9.30;;;9.60;99.90;;;;;;4988354;28;20730;-67
2023/03/20 05:27:58;;;;;;;10.23;9.23;;;9.60;99.90;;;;;;4986538;28;20206;-68
2023/03/20 05:30:23;;;;;;;12.20;10.00;;;9.60;99.90;;;;;;4985850;28;20689;-68
2023/03/20 05:32:51;;;;;;;11.20;9.80;;;9.60;99.90;;;;;;4985656;28;20206;-66
2023/03/20 05:35:16;;;;;;;12.43;9.80;;;9.60;99.90;;;;;;4985870;28;20197;-69
2023/03/20 05:37:42;;;;;;;12.87;11.43;;;9.60;99.90;;;;;;4984645;28;20638;-68
2023/03/20 05:40:11;;;;;;;12.53;11.17;;;9.70;99.90;;;;;;4986091;28;20737;-68
2023/03/20 05:42:37;;;;;;;15.03;11.90;;;9.70;99.90;;;;;;4985711;28;20203;-68
2023/03/20 05:45:03;;;;;;;13.27;11.87;;;9.70;99.90;;;;;;4986409;28;20204;-69
2023/03/20 05:47:29;;;;;;;15.57;12.13;;;9.70;99.90;;;;;;4983263;28;20209;-69
2023/03/20 05:49:54;;;;;;;16.03;11.70;;;9.70;99.90;;;;;;4986540;28;20214;-67
2023/03/20 05:52:20;;;;;;;12.87;11.00;;;9.70;99.90;;;;;;4989778;28;20200;-67
2023/03/20 05:54:46;;;;;;;14.83;12.47;;;9.70;99.90;;;;;;4985430;28;20526;-67
2023/03/20 05:57:11;;;;;;;13.80;11.27;;;9.70;99.90;;;;;;4986800;28;20197;-67
2023/03/20 05:59:37;;;;;;;15.13;13.43;;;9.70;99.90;;;;;;4986089;28;20913;-68
2023/03/20 06:02:03;;;;;;;14.97;13.40;;;9.80;99.90;;;;;;4985250;28;20204;-68
2023/03/20 06:04:29;;;;;;;18.10;14.57;;;9.80;99.90;;;;;;4985249;28;20671;-68
2023/03/20 06:06:54;;;;;;;17.23;14.77;;;9.80;99.90;;;;;;4985904;28;20202;-68
2023/03/20 06:09:20;;;;;;;18.77;15.67;;;9.80;99.90;;;;;;4985661;28;20264;-68
2023/03/20 06:11:45;;;;;;;17.77;15.03;;;9.80;99.90;;;;;;4985607;28;20213;-68
2023/03/20 06:14:11;;;;;;;16.97;15.23;;;9.80;99.90;;;;;;4985673;28;20613;-68
2023/03/20 06:16:36;;;;;;;20.43;15.77;;;9.70;99.90;;;;;;4988284;28;20203;-68
2023/03/20 06:19:02;;;;;;;17.73;15.50;;;9.60;99.90;;;;;;4990476;28;20228;-68
2023/03/20 06:21:27;;;;;;;17.07;13.90;;;9.50;99.90;;;;;;4989661;28;20218;-68
2023/03/20 06:23:53;;;;;;;16.00;14.07;;;9.40;99.90;;;;;;4990419;28;20230;-68
2023/03/20 06:26:19;;;;;;;20.13;15.33;;;9.40;99.90;;;;;;4989923;28;20203;-69
2023/03/20 06:28:45;;;;;;;23.30;18.33;;;9.40;99.90;;;;;;4988232;28;20218;-69
2023/03/20 06:31:11;;;;;;;26.83;19.63;;;9.30;99.90;;;;;;4990106;28;20216;-69
2023/03/20 06:33:36;;;;;;;24.10;18.70;;;9.30;99.90;;;;;;4989388;28;20228;-69
2023/03/20 06:36:03;;;;;;;28.73;20.70;;;9.20;99.90;;;;;;4989702;28;20223;-69
2023/03/20 06:38:29;;;;;;;26.60;20.67;;;9.10;99.90;;;;;;4989486;28;20211;-68
2023/03/20 06:40:55;;;;;;;27.30;22.23;;;9.10;99.90;;;;;;4987760;28;20233;-68
2023/03/20 06:43:20;;;;;;;28.30;22.13;;;9.10;99.90;;;;;;4990164;28;20203;-68
2023/03/20 06:45:47;;;;;;;31.10;22.93;;;9.10;99.90;;;;;;4989602;28;20257;-67
2023/03/20 06:48:12;;;;;;;32.07;21.93;;;9.10;99.90;;;;;;4989566;28;20192;-68
2023/03/20 06:50:38;;;;;;;32.63;23.57;;;9.10;99.90;;;;;;4989932;28;20212;-70
2023/03/20 06:53:04;;;;;;;33.13;24.47;;;9.10;99.90;;;;;;4973097;28;20205;-69
2023/03/20 06:55:30;;;;;;;32.83;24.47;;;9.00;99.90;;;;;;4987857;28;20251;-67
2023/03/20 06:57:55;;;;;;;37.80;24.67;;;9.00;99.90;;;;;;4989957;28;20242;-67
2023/03/20 07:00:21;;;;;;;36.33;24.23;;;9.10;99.90;;;;;;4989651;28;20778;-67
2023/03/20 07:02:47;;;;;;;35.97;24.50;;;9.10;99.90;;;;;;4989859;28;20809;-66
2023/03/20 07:05:14;;;;;;;37.90;24.90;;;9.10;99.90;;;;;;4989976;28;20189;-68
2023/03/20 07:07:39;;;;;;;38.87;25.93;;;9.10;99.90;;;;;;4990050;28;20235;-68
2023/03/20 07:10:06;;;;;;;36.03;24.87;;;9.10;99.90;;;;;;4987805;28;20229;-68
2023/03/20 07:12:31;;;;;;;32.87;23.10;;;9.10;99.90;;;;;;4988717;28;20200;-68
2023/03/20 07:14:57;;;;;;;33.53;23.03;;;9.00;99.90;;;;;;4988946;28;20326;-68
2023/03/20 07:17:22;;;;;;;32.20;20.80;;;9.00;99.90;;;;;;4988456;28;20932;-69
2023/03/20 07:19:49;;;;;;;39.53;23.93;;;9.00;99.90;;;;;;4989238;28;20679;-68
2023/03/20 07:22:21;;;;;;;33.30;23.43;;;8.90;99.90;;;;;;4986890;28;20268;-68
2023/03/20 07:24:47;;;;;;;36.37;22.73;;;8.90;99.90;;;;;;4989315;28;20218;-68
2023/03/20 07:27:13;;;;;;;33.17;22.37;;;8.80;99.90;;;;;;4988365;28;20197;-68
2023/03/20 07:29:38;;;;;;;36.30;25.20;;;8.80;99.90;;;;;;4988622;28;20658;-69
2023/03/20 07:32:04;;;;;;;32.87;21.73;;;8.80;99.90;;;;;;4989531;28;20721;-69
2023/03/20 07:34:29;;;;;;;37.47;21.80;;;8.80;99.90;;;;;;4988909;28;20229;-67
2023/03/20 07:36:55;;;;;;;38.33;23.77;;;8.80;99.90;;;;;;4988479;28;20280;-68
2023/03/20 07:39:21;;;;;;;34.57;22.23;;;8.90;99.90;;;;;;4988445;28;20229;-67
2023/03/20 07:41:46;;;;;;;35.43;22.17;;;8.90;99.90;;;;;;4986180;28;20592;-69
2023/03/20 07:44:13;;;;;;;31.40;21.10;;;8.90;99.90;;;;;;4988631;28;20379;-69
2023/03/20 07:46:39;;;;;;;37.47;22.63;;;9.00;99.90;;;;;;4987398;28;20286;-69
2023/03/20 07:49:05;;;;;;;34.30;21.43;;;9.10;99.90;;;;;;4987923;28;20211;-68
2023/03/20 07:51:31;;;;;;;33.57;20.97;;;9.40;99.90;;;;;;4987152;28;20567;-68
2023/03/20 07:53:56;;;;;;;35.60;23.60;;;9.60;99.90;;;;;;4987820;28;20197;-68
2023/03/20 07:56:22;;;;;;;34.80;22.33;;;9.70;99.90;;;;;;4990273;28;20242;-68
2023/03/20 07:58:47;;;;;;;31.77;20.33;;;9.80;99.90;;;;;;4989823;28;20199;-69
2023/03/20 08:01:13;;;;;;;32.20;22.00;;;9.80;99.90;;;;;;4989420;28;20240;-67
2023/03/20 08:03:39;;;;;;;32.53;20.60;;;9.80;99.90;;;;;;4990895;28;20358;-68
2023/03/20 08:06:06;;;;;;;29.37;19.03;;;9.90;99.90;;;;;;4987504;28;20719;-68
2023/03/20 08:08:32;;;;;;;32.60;18.90;;;9.80;99.90;;;;;;4988410;28;20195;-67
2023/03/20 08:10:57;;;;;;;32.43;20.00;;;9.90;99.90;;;;;;4987151;28;20571;-67
2023/03/20 08:13:23;;;;;;;27.33;18.80;;;9.80;99.90;;;;;;4988065;28;20212;-67
2023/03/20 08:15:48;;;;;;;36.57;21.30;;;9.80;99.90;;;;;;4987653;28;20208;-68
2023/03/20 08:18:14;;;;;;;36.80;19.03;;;9.80;99.90;;;;;;4988323;28;20253;-74
2023/03/20 08:20:40;;;;;;;33.97;21.47;;;9.70;99.90;;;;;;4988137;28;20265;-74
2023/03/20 08:23:06;;;;;;;33.23;19.83;;;9.70;99.90;;;;;;4988477;28;20756;-77
2023/03/20 08:25:32;;;;;;;30.93;18.90;;;9.70;99.90;;;;;;4986778;28;20197;-81
2023/03/20 08:28:02;;;;;;;25.73;18.40;;;9.70;99.90;;;;;;4989458;28;20262;-81
2023/03/20 08:30:27;;;;;;;27.77;19.57;;;9.80;99.90;;;;;;4988207;28;21008;-74
2023/03/20 08:32:53;;;;;;;34.43;21.67;;;9.90;99.90;;;;;;4988093;28;20210;-70
2023/03/20 08:35:18;;;;;;;32.33;19.90;;;10.10;99.90;;;;;;4988319;28;20200;-77
2023/03/20 08:37:44;;;;;;;27.63;17.47;;;10.20;99.90;;;;;;4982412;28;20540;-76
2023/03/20 08:40:11;;;;;;;27.40;18.23;;;10.40;99.90;;;;;;4992311;28;20346;-76
2023/03/20 08:42:36;;;;;;;28.07;18.47;;;10.50;99.90;;;;;;4988671;28;20722;-75
2023/03/20 08:45:02;;;;;;;30.20;18.77;;;10.60;99.90;;;;;;4989533;28;20270;-77
2023/03/20 08:47:27;;;;;;;26.40;16.87;;;10.70;99.90;;;;;;4988008;28;20809;-76
2023/03/20 08:49:53;;;;;;;30.43;18.67;;;10.90;99.90;;;;;;4987710;28;20212;-77
2023/03/20 08:52:18;;;;;;;23.87;16.17;;;11.20;99.90;;;;;;4987929;28;20209;-77
2023/03/20 08:54:44;;;;;;;24.90;16.67;;;11.10;99.90;;;;;;4990796;28;20240;-77
2023/03/20 08:57:10;;;;;;;26.67;16.77;;;11.00;99.90;;;;;;4987366;28;20198;-75
2023/03/20 08:59:35;;;;;;;25.37;16.53;;;11.20;99.90;;;;;;4989348;28;20210;-75
2023/03/20 09:02:01;;;;;;;26.30;16.57;;;11.40;99.90;;;;;;4987957;28;20307;-75
2023/03/20 09:04:26;;;;;;;27.50;16.43;;;11.60;99.90;;;;;;4987194;28;20507;-76
2023/03/20 09:06:52;;;;;;;21.30;14.80;;;11.80;99.90;;;;;;4989192;28;20208;-77
2023/03/20 09:09:20;;;;;;;20.90;15.23;;;11.80;99.90;;;;;;4989348;28;20191;-77
2023/03/20 09:11:45;;;;;;;21.67;14.60;;;11.80;99.90;;;;;;4988591;28;20644;-73
2023/03/20 09:14:11;;;;;;;23.93;15.83;;;11.90;99.90;;;;;;4988317;28;20197;-73
2023/03/20 09:16:36;;;;;;;21.57;14.50;;;12.00;99.90;;;;;;4988050;28;20545;-74
2023/03/20 09:19:02;;;;;;;21.60;12.73;;;12.00;99.90;;;;;;4986477;28;20200;-74
2023/03/20 09:21:31;;;;;;;22.17;14.63;;;12.10;99.90;;;;;;4989844;28;20217;-75
2023/03/20 09:23:56;;;;;;;21.93;14.07;;;12.20;99.90;;;;;;4994739;28;20245;-74
2023/03/20 09:26:22;;;;;;;21.67;14.10;;;12.20;99.90;;;;;;4996039;28;20674;-74
2023/03/20 09:28:48;;;;;;;18.70;12.93;;;12.30;99.90;;;;;;4995448;28;20223;-74
2023/03/20 09:31:13;;;;;;;19.13;13.10;;;12.30;99.90;;;;;;4988342;28;20214;-73
2023/03/20 09:33:39;;;;;;;19.63;13.53;;;12.30;99.90;;;;;;4977020;28;20231;-74
2023/03/20 09:36:07;;;;;;;19.07;12.57;;;12.40;99.90;;;;;;4977358;28;20298;-74
2023/03/20 09:38:32;;;;;;;17.50;12.10;;;12.40;99.90;;;;;;4977014;28;20289;-73
2023/03/20 09:41:00;;;;;;;17.13;12.30;;;12.40;99.90;;;;;;4976455;28;20299;-76
2023/03/20 09:43:28;;;;;;;18.43;12.40;;;12.40;99.90;;;;;;4977110;28;20207;-82
2023/03/20 09:46:17;;;;;;;19.00;11.83;;;12.20;99.90;;;;;;4977118;28;20202;-75
2023/03/20 09:49:00;;;;;;;13.53;10.03;;;12.20;99.90;;;;;;4982400;28;20206;-79
2023/03/20 09:51:36;;;;;;;17.43;10.53;;;12.30;99.90;;;;;;4990612;28;20209;-82
2023/03/20 09:54:09;;;;;;;17.67;11.17;;;12.30;99.90;;;;;;4990319;28;20204;-78
2023/03/20 09:56:36;;;;;;;14.67;9.57;;;12.40;99.90;;;;;;4984173;28;20215;-79
2023/03/20 09:59:05;;;;;;;12.80;9.43;;;12.30;99.90;;;;;;4984366;28;20204;-77
2023/03/20 10:01:50;;;;;;;12.73;9.37;;;12.20;99.90;;;;;;4987547;28;20223;-79
2023/03/20 10:04:16;;;;;;;14.97;10.57;;;12.10;99.90;;;;;;4986291;28;20276;-78
2023/03/20 10:06:42;;;;;;;12.97;8.87;;;12.10;99.90;;;;;;4987539;28;20495;-80
2023/03/20 10:09:15;;;;;;;15.23;10.63;;;12.10;99.90;;;;;;4983601;28;20738;-77
2023/03/20 10:12:03;;;;;;;14.93;8.50;;;12.00;99.90;;;;;;4985900;28;20294;-78
2023/03/20 10:14:59;;;;;;;11.13;9.10;;;12.00;99.90;;;;;;4985307;28;20617;-77
2023/03/20 10:17:38;;;;;;;11.93;8.60;;;12.00;99.90;;;;;;4986597;28;20680;-75
2023/03/20 10:20:30;;;;;;;10.60;8.43;;;12.10;99.90;;;;;;4969402;28;20215;-75
2023/03/20 10:23:02;;;;;;;11.20;8.20;;;12.20;99.90;;;;;;4987790;28;20196;-75
2023/03/20 10:25:36;;;;;;;14.43;8.27;;;12.10;99.90;;;;;;4984652;28;20725;-75
2023/03/20 10:28:12;;;;;;;15.00;8.27;;;11.90;99.90;;;;;;4985450;28;20199;-77
2023/03/20 10:30:54;;;;;;;11.90;7.87;;;11.90;99.90;;;;;;4985913;28;20268;-76
2023/03/20 10:33:26;;;;;;;11.27;7.73;;;12.00;99.90;;;;;;4988937;28;20661;-77
2023/03/20 10:36:22;;;;;;;12.00;8.13;;;12.00;99.90;;;;;;4984963;28;20208;-77
2023/03/20 10:39:05;;;;;;;13.70;8.63;;;12.20;99.90;;;;;;4967903;28;20725;-77
2023/03/20 10:41:37;;;;;;;14.80;9.63;;;12.50;99.90;;;;;;4986138;28;20316;-77
2023/03/20 10:44:04;;;;;;;12.17;7.80;;;12.60;99.90;;;;;;4986475;28;20674;-76
2023/03/20 10:46:43;;;;;;;10.73;7.23;;;12.60;99.90;;;;;;4984752;28;20341;-78
2023/03/20 10:49:29;;;;;;;10.43;6.93;;;12.50;99.90;;;;;;4986682;28;20200;-78
2023/03/20 10:51:58;;;;;;;8.50;6.70;;;12.40;99.90;;;;;;4985810;28;20745;-78
2023/03/20 10:54:32;;;;;;;10.13;6.87;;;12.40;99.90;;;;;;4985388;28;20257;-74
2023/03/20 10:57:04;;;;;;;12.30;7.57;;;12.50;99.90;;;;;;4984426;28;20243;-75
2023/03/20 10:59:39;;;;;;;10.73;6.63;;;12.50;99.90;;;;;;4986173;28;20572;-74
2023/03/20 11:02:12;;;;;;;10.90;7.33;;;12.50;99.90;;;;;;4987924;28;20210;-77
2023/03/20 11:04:38;;;;;;;12.10;7.93;;;12.40;99.90;;;;;;4990637;28;20292;-78
2023/03/20 11:07:22;;;;;;;8.03;7.00;;;12.50;99.90;;;;;;4991193;28;20903;-77
2023/03/20 11:10:03;;;;;;;7.50;6.07;;;12.60;99.90;;;;;;4971326;28;20296;-79
2023/03/20 11:12:36;;;;;;;8.87;6.47;;;12.50;99.90;;;;;;4987211;28;20202;-78
2023/03/20 11:15:30;;;;;;;10.60;6.30;;;12.30;99.90;;;;;;4989655;28;20210;-80
2023/03/20 11:17:58;;;;;;;7.87;6.33;;;12.30;99.90;;;;;;4985356;28;20367;-78
2023/03/20 11:20:38;;;;;;;11.07;6.63;;;12.30;99.90;;;;;;4987704;28;20516;-78
2023/03/20 11:23:06;;;;;;;8.90;6.63;;;12.30;99.90;;;;;;4989299;28;20207;-77
2023/03/20 11:25:37;;;;;;;10.37;6.80;;;12.30;99.90;;;;;;4989377;28;20665;-77
2023/03/20 11:28:23;;;;;;;9.60;7.00;;;12.20;99.90;;;;;;4989783;28;20210;-76
2023/03/20 11:30:50;;;;;;;11.53;7.73;;;12.30;99.90;;;;;;4988065;28;21401;-76
2023/03/20 11:33:15;;;;;;;12.17;7.40;;;12.40;99.90;;;;;;4988567;28;20232;-78
2023/03/20 11:35:46;;;;;;;9.90;7.30;;;12.40;99.90;;;;;;4988632;28;20538;-77
2023/03/20 11:38:18;;;;;;;11.00;7.63;;;12.70;99.90;;;;;;4988742;28;20202;-78
2023/03/20 11:40:47;;;;;;;10.90;7.10;;;12.70;99.90;;;;;;4988683;28;20211;-78
2023/03/20 11:43:18;;;;;;;11.07;8.00;;;12.70;99.90;;;;;;4988750;28;20199;-78
2023/03/20 11:45:46;;;;;;;9.13;6.90;;;12.60;99.90;;;;;;4987267;28;20204;-77
2023/03/20 11:48:19;;;;;;;11.60;7.27;;;12.40;99.90;;;;;;4988365;28;20200;-77
2023/03/20 11:50:58;;;;;;;10.00;8.20;;;12.40;99.90;;;;;;4988120;28;20248;-76
2023/03/20 11:53:40;;;;;;;9.37;7.20;;;12.60;99.90;;;;;;4988903;28;20533;-76
2023/03/20 11:56:27;;;;;;;10.20;7.33;;;12.50;99.90;;;;;;4987376;28;20266;-79
2023/03/20 11:59:08;;;;;;;9.50;6.83;;;12.40;99.90;;;;;;4988388;28;20205;-77
2023/03/20 12:01:54;;;;;;;13.90;8.57;;;12.40;99.90;;;;;;4987784;28;20214;-77
2023/03/20 12:04:27;;;;;;;10.80;7.53;;;12.30;99.90;;;;;;4988067;28;20277;-78
2023/03/20 12:07:11;;;;;;;10.27;8.27;;;12.20;99.90;;;;;;4988012;28;20198;-77
2023/03/20 12:09:45;;;;;;;12.03;8.30;;;12.10;99.90;;;;;;4987948;28;20203;-77
2023/03/20 12:12:16;;;;;;;12.00;8.10;;;12.30;99.90;;;;;;4986536;28;20203;-81
2023/03/20 12:14:56;;;;;;;10.77;7.07;;;12.40;99.90;;;;;;4988745;28;20218;-81
2023/03/20 12:17:39;;;;;;;9.97;8.17;;;12.40;99.90;;;;;;4990048;28;20204;-81
2023/03/20 12:20:25;;;;;;;9.37;6.77;;;12.50;99.90;;;;;;4988144;28;20208;-80
2023/03/20 12:23:10;;;;;;;10.67;6.97;;;12.40;99.90;;;;;;4968177;28;20263;-80
2023/03/20 12:25:43;;;;;;;12.70;8.37;;;12.20;99.90;;;;;;4988291;28;20222;-80
2023/03/20 12:28:26;;;;;;;9.47;7.17;;;12.40;99.90;;;;;;4987336;28;20207;-82
2023/03/20 12:31:05;;;;;;;11.30;7.53;;;12.30;99.90;;;;;;4984434;28;20215;-80
2023/03/20 12:33:57;;;;;;;11.27;9.23;;;12.30;99.90;;;;;;4985997;28;20218;-81
2023/03/20 12:36:33;;;;;;;11.97;8.67;;;12.20;99.90;;;;;;4987593;28;20283;-80
2023/03/20 12:39:02;;;;;;;11.13;8.80;;;12.10;99.90;;;;;;4988087;28;20642;-79
2023/03/20 12:41:37;;;;;;;14.90;9.40;;;12.00;99.90;;;;;;4986525;28;20242;-81
2023/03/20 12:44:14;;;;;;;15.40;8.73;;;11.90;99.90;;;;;;4988654;28;20203;-80
2023/03/20 12:46:48;;;;;;;12.43;8.27;;;11.80;99.90;;;;;;4987031;28;20209;-79
2023/03/20 12:49:26;;;;;;;14.53;9.10;;;11.80;99.90;;;;;;4987313;28;20350;-80
2023/03/20 12:52:13;;;;;;;15.93;9.23;;;11.90;99.90;;;;;;4980836;28;20222;-76
2023/03/20 12:54:58;;;;;;;17.57;9.47;;;11.90;99.90;;;;;;4995656;28;20224;-76
2023/03/20 12:57:40;;;;;;;15.13;10.40;;;12.00;99.90;;;;;;4996473;28;20217;-76
2023/03/20 13:00:39;;;;;;;13.73;8.90;;;12.00;99.90;;;;;;4990085;28;20207;-74